NWS Home NWS Lubbock West Texas Mesonet North Sector Latest Conditions as of 0605 AM, Wed Dec 02, 2020

Latest   N   C   S   Daily Sum   3hrΔ   24hrΔ   Soil Data 
Site Map   24hr Precip   72hr Precip   Google Plot


Station Time of Last Temp Dew Pt. RH Wind Direction Wind Speed Wind Gust Max Wind Max Temp Min Temp Max RH Min RH Altimeter 1HR Rain Today's Rain Solar Rad Wind Chill
Adrian 6WSW  06:00 AM 30 25 82% N2530 37 mph 11° @ 0547 AM 34 30 85 69 30.19" 0 0.00 0 16
Aiken 3WSW  06:00 AM 34 22 60% N1923 28 mph 350° @ 0447 AM 35 31 64 56 30.11" 0 0.00 0 23
Amarillo 15NNW   06:00 AM 35 24 63% N2629 39 mph 351° @ 0528 AM 39 35 64 45 30.17" 0 0.00 0 22
Amarillo 7SSE  06:00 AM 34 23 65% N2532 44 mph 3° @ 0527 AM 36 34 66 47 30.13" 0 0.00 0 21
Amarillo 9NNE  06:00 AM 35 25 66% N2834 42 mph 4° @ 0508 AM 38 35 66 45 30.16" 0 0.00 0 22
Amherst 1NE  06:00 AM 33 25 74% N2026 33 mph 338° @ 0245 AM 38 32 75 46 30.13" 0 0.00 0 21
Bootleg 11WNW  06:00 AM 28 27 94% N2227 37 mph 345° @ 0212 AM 33 28 94 67 30.19" 0 0.00 0 14
Borger 7E  06:00 AM 35 25 67% N2538 38 mph 358° @ 0600 AM 36 34 67 52 30.15" 0 0.00 0 23
Boys Ranch 1WSW  06:00 AM 35 27 72% N2532 32 mph 1° @ 0600 AM 39 35 73 49 30.21" 0 0.00 0 23
Canadian 6E  06:00 AM 36 27 69% N2227 42 mph 351° @ 0312 AM 37 34 79 58 30.09" 0 0.00 0  
Caprock Canyons State Park  06:00 AM 37 22 54% N2031 44 mph 347° @ 0341 AM 42 37 54 41 30.11" 0 0.00 0  
Childress 2NNE  06:00 AM 39 25 57% N2431 34 mph 342° @ 0555 AM 39 36 70 57 30.04" 0 0.00 0  
Clarendon 2WSW  06:00 AM 36 24 63% N2533 41 mph 2° @ 0520 AM 38 36 63 54 30.09" 0 0.00 0  
Claude 12SW  06:00 AM 33 24 68% N3035 41 mph 345° @ 0457 AM 34 33 68 55 30.09" 0 0.00 0 19
Dimmitt 2NE  06:00 AM 32 25 78% N2430 38 mph 343° @ 0450 AM 35 32 78 51 30.13" 0 0.00 0 19
Dozier 3W  06:00 AM 37 26 62% N2935 41 mph 352° @ 0508 AM 39 37 67 56 30.09" 0 0.00 0  
Earth 9WSW  06:00 AM 33 26 74% N2025 33 mph 340° @ 0335 AM 37 33 74 46 30.15" 0 0.00 0 21
Endee NM 2SW  06:00 AM 32 27 82% N1820 39 mph 349° @ 0205 AM 38 31 84 59 30.22" 0 0.00 0 21
Estelline 3SSE  06:00 AM 40 24 53% N1923 32 mph 340° @ 0551 AM 41 39 61 52 30.08" 0 0.00 0  
Floydada 2NNE  06:00 AM 35 20 54% N2028 30 mph 349° @ 0505 AM 39 33 59 48 30.08" 0 0.00 0 24
Friona 2NE  06:00 AM 32 25 77% N2737 38 mph 351° @ 0545 AM 33 31 78 56 30.16" 0 0.00 0 18
Fritch 1WNW  06:00 AM 36 25 65% N2732 44 mph 14° @ 0552 AM 40 36 68 47 30.16" 0 0.00 0  
Goodlett 3W  06:00 AM 37 28 70% N2125 26 mph 341° @ 0350 AM 37 35 77 68 30.02" 0 0.00 0  
Goodnight  06:00 AM 34 23 64% N2229 40 mph 347° @ 0419 AM 36 33 64 54 30.11" 0 0.00 0 22
Happy 1E  06:00 AM 34 25 67% N3337 39 mph 6° @ 0522 AM 35 34 67 51 30.11" 0 0.00 0 20
Hart 3N  06:00 AM 33 26 77% N2433 35 mph 339° @ 0520 AM 36 32 80 51 30.12" 0 0.00 0 20
Hereford 2NW  06:00 AM 32 26 80% N2331 36 mph 349° @ 0450 AM 34 31 80 55 30.14" 0 0.00 0 19
Lake McClellan 2NW  06:00 AM 34 24 67% N2629 43 mph 352° @ 0345 AM 36 33 70 56 30.10" 0 0.00 0 21
Lesley 2S  06:00 AM 39 23 52% N2834 39 mph 354° @ 0441 AM 42 39 54 47 30.10" 0 0.00 0  
McLean 1E  06:00 AM 34 25 69% N2737 44 mph 0° @ 0440 AM 35 33 75 60 30.07" 0 0.00 0 21
Memphis 1NE  06:00 AM 38 24 56% N3138 46 mph 356° @ 0530 AM 41 38 59 53 30.07" 0 0.00 0  
Muleshoe 2SSW  06:00 AM 33 27 78% N1824 31 mph 350° @ 0245 AM 38 33 78 46 30.16" 0 0.00 0 22
Northfield 1S  06:00 AM 39 22 50% N2231 31 mph 344° @ 0600 AM 41 38 57 49 30.08" 0 0.00 0  
Odell 4ENE  06:00 AM 32 28 85% N1114 16 mph 116° @ 1224 AM 40 29 89 60 30.00" 0 0.00 0 23
Olton 6S  06:00 AM 33 25 75% N2129 33 mph 346° @ 1225 AM 37 32 75 48 30.11" 0 0.00 0 21
Palo Duro 4E (JA Ranch)  06:00 AM 37 24 58% N2633 43 mph 360° @ 0506 AM 41 37 58 48 30.11" 0 0.00 0  
Palo Duro Canyon SP Floor  06:00 AM 37 24 60% NW1221 36 mph 332° @ 0554 AM 39 37 60 45 30.15" 0 0.00 0  
Palo Duro Canyon State Park Rim  06:00 AM 34 23 63% N1730 39 mph 351° @ 0206 AM 38 34 63 44 30.13" 0 0.00 0 24
Palo Duro Reservoir 1NW   06:00 AM 35 25 67% N2834 43 mph 3° @ 0506 AM 37 34 67 53 30.16" 0 0.00 0 22
Pampa 2E  06:00 AM 33 25 72% N3038 42 mph 349° @ 0350 AM 35 32 72 58 30.10" 0 0.00 0 19
Panhandle 1SSW  06:00 AM 33 25 70% N2735 40 mph 348° @ 0434 AM 35 33 70 57 30.12" 0 0.00 0 20
Plainview 1S  06:00 AM 35 22 58% N2025 32 mph 342° @ 1205 AM 38 33 59 48 30.11" 0 0.00 0 24
Romero 11SSW  06:00 AM 32 25 75% N2126 42 mph 360° @ 1255 AM 37 32 76 64 30.20" 0 0.00 0 20
Silverton 7ESE  06:00 AM 35 23 60% N2635 41 mph 357° @ 0510 AM 39 35 60 51 30.09" 0 0.00 0 23
South Plains 3ENE  06:00 AM 35 21 58% N2126 34 mph 1° @ 0512 AM 39 34 58 49 30.10" 0 0.00 0 24
Stinnett 1NNW  06:00 AM 34 25 69% N3136 41 mph 3° @ 0518 AM 36 33 69 54 30.15" 0 0.00 0 20
Stratford 4WNW  06:00 AM 31 26 82% N2938 40 mph 345° @ 0218 AM 39 31 83 49 30.20" 0 0.00 0 17
Tulia 2ENE  06:00 AM 34 23 64% N1725 30 mph 346° @ 0405 AM 35 32 64 55 30.11" 0 0.00 0 23
Turkey 2WSW  06:00 AM 38 22 54% NW2329 40 mph 330° @ 0525 AM 40 37 58 49 30.09" 0 0.00 0  
Umbarger 3NNE  06:00 AM 33 24 69% N2636 41 mph 356° @ 0558 AM 34 32 74 51 30.14" 0 0.00 0 20
Vega 4E  06:00 AM 32 26 81% N2025 42 mph 346° @ 0457 AM 34 31 81 58 30.16" 0 0.00 0 20
Vigo Park  06:00 AM 34 24 64% N1923 37 mph 353° @ 0425 AM 36 34 64 54 30.11" 0 0.00 0 23

West Texas Mesonet Home   Site Map/Menu  NWS Lubbock Soil Data  Daily Summary Page  24hr Precip  72hr Precip  Google Plot